Impacts TAF Board INFO
FOR SITUATIONAL AWARENESS. NOT TO BE USED FOR FLIGHT PLANNING PURPOSES.
IDs:

KSLC - Salt Lake City Intl, UT, US

Issued at 0451 UTC 27 Jul 2017
Updated at 0504 UTC 27 Jul 2017
Potential Impact None Slight Moderate High
Time0454Z 27/06Z 27/07Z 27/08Z 27/09Z 27/10Z 27/11Z 27/12Z 27/13Z 27/14Z 27/15Z 27/16Z 27/17Z 27/18Z>>
Type OBS PRVL PRVL PRVL PRVL PRVL PRVL PRVL PRVL PRVL PRVL PRVL PRVL PRVL
VIS 10 >6 >6 >6 >6 >6 >6 >6 >6 >6 >6 >6 >6 >6
CIG 90 -- -- -- -- -- -- -- -- -- -- -- -- 120
Cover OVC SCT SCT SCT SCT SCT SCT SCT SCT SCT SCT SCT SCT BKN
FltCat VFR VFR VFR VFR VFR VFR VFR VFR VFR VFR VFR VFR VFR VFR
WX -TSRA -- -- -- -- -- -- -- -- -- -- -- -- --
WDir 80 190 190 190 190 190 190 190 190 190 190 190 190 330
WSpd 13 7 7 7 7 7 7 7 7 7 7 7 7 7
WGst -- -- -- -- -- -- -- -- -- -- -- -- -- --

Raw TAF
KSLC 270451Z 2705/2806 09007KT P6SM VCSH FEW060 BKN090
  FM270600 19007KT P6SM FEW060 SCT120
  FM271800 33007KT P6SM SCT100 BKN120
  FM280400 15006KT P6SM FEW120


Raw METAR
KSLC 270454Z 08013KT 10SM -TSRA FEW075CB BKN090 OVC110 21/18 A3019 RMK AO2 PK WND 27026/0402 SLP172 OCNL LTGIC OHD AND DSNT N-SE TS OHD MOV NE CB DSNT ALQDS P0007 T02110178 $
KSLC 270354Z 25020G38KT 9SM -TSRA BKN070CB OVC100 21/17 A3018 RMK AO2 PK WND 26040/0341 WSHFT 0333 RAB41 TSB06 SLP171 CONS LTGICCG OHD AND DSNT ALQDS TS OHD MOV NE CB DSNT ALQDS P0000 T02060172
KSLC 270348Z 26029G40KT 6SM -TSRA BKN070CB BKN100 OVC150 22/17 A3017 RMK AO2 PK WND 26040/0341 WSHFT 0333 RAB41 TSB06 PRESRR CONS LTGICCG OHD TS OHD MOV NE P0000
KSLC 270342Z 26033G40KT 6SM -TSRA BKN070CB BKN100 OVC150 25/15 A3014 RMK AO2 PK WND 26040/0341 RAB41 TSB06 CONS LTGICCG OHD TS OHD MOV NE P0000 T02500150
KSLC 270307Z COR 01009KT 10SM TS FEW080CB SCT110 BKN150 BKN180 OVC220 28/16 A3010 RMK AO2 TSB06 OCNL LTGICCG VC SW-W TS VC SW-NW MOV NE VCSH S-W T02830156
KSLC 270254Z 36008KT 10SM FEW080 FEW110 SCT150 BKN180 OVC220 28/16 A3009 RMK AO2 SLP136 OCNL LTGIC DSNT S-W CB DSNT S-W-N TCU DSNT S ACSL DSNT N AND E-SE SHRA DSNT SW-W T02780161 53003

METAR Board
Radar Display
Forecast Discussion

FOR SITUATIONAL AWARENESS. NOT TO BE USED FOR FLIGHT PLANNING PURPOSES.